createdAt,value
2019-05-30T00:00:25.812Z,8.80
2019-05-30T00:01:32.258Z,8.80
2019-05-30T00:02:39.175Z,8.80
2019-05-30T00:03:46.495Z,8.70
2019-05-30T00:04:54.102Z,8.70
2019-05-30T00:06:00.626Z,8.70
2019-05-30T00:07:10.982Z,8.70
2019-05-30T00:08:16.739Z,8.70
2019-05-30T00:09:23.662Z,8.70
2019-05-30T00:10:30.094Z,8.70
2019-05-30T00:11:37.074Z,8.60
2019-05-30T00:12:43.457Z,8.60
2019-05-30T00:13:50.395Z,8.60
2019-05-30T00:14:56.821Z,8.60
2019-05-30T00:16:05.487Z,8.50
2019-05-30T00:17:11.617Z,8.50
2019-05-30T00:18:18.652Z,8.50
2019-05-30T00:19:25.027Z,8.50
2019-05-30T00:20:31.925Z,8.50
2019-05-30T00:21:38.036Z,8.50
2019-05-30T00:22:45.018Z,8.40
2019-05-30T00:23:51.343Z,8.40
2019-05-30T00:25:00.047Z,8.40
2019-05-30T00:26:07.573Z,8.30
2019-05-30T00:27:15.406Z,8.30
2019-05-30T00:28:21.829Z,8.30
2019-05-30T00:29:28.687Z,8.30
2019-05-30T00:30:35.294Z,8.20
2019-05-30T00:31:42.247Z,8.20
2019-05-30T00:32:48.394Z,8.20
2019-05-30T00:33:55.579Z,8.20
2019-05-30T00:35:02.096Z,8.10
2019-05-30T00:36:08.993Z,8.20
2019-05-30T00:37:15.377Z,8.10
2019-05-30T00:38:22.507Z,8.10
2019-05-30T00:39:29.025Z,8.10
2019-05-30T00:40:35.954Z,8.10
2019-05-30T00:41:42.364Z,8.10
2019-05-30T00:42:49.326Z,8.10
2019-05-30T00:43:55.908Z,8.10
2019-05-30T00:45:15.542Z,8.10
2019-05-30T00:46:10.844Z,8.10
2019-05-30T00:47:17.741Z,8.10
2019-05-30T00:48:25.077Z,8.10
2019-05-30T00:49:32.046Z,8.10
2019-05-30T00:50:38.473Z,8.10
2019-05-30T00:51:45.631Z,8.00
2019-05-30T00:52:51.936Z,8.00
2019-05-30T00:53:58.923Z,8.00
2019-05-30T00:55:06.851Z,7.90
2019-05-30T00:56:14.108Z,7.90
2019-05-30T00:57:20.411Z,7.90
2019-05-30T00:58:27.374Z,7.90
2019-05-30T00:59:33.772Z,7.90
2019-05-30T01:00:43.909Z,7.90
2019-05-30T01:01:48.044Z,7.90
2019-05-30T01:02:55.163Z,7.80
2019-05-30T01:04:02.665Z,7.80
2019-05-30T01:05:10.972Z,7.70
2019-05-30T01:06:17.260Z,7.70
2019-05-30T01:07:23.900Z,7.70
2019-05-30T01:08:30.121Z,7.70
2019-05-30T01:09:36.960Z,7.70
2019-05-30T01:10:44.149Z,7.70
2019-05-30T01:11:50.977Z,7.70
2019-05-30T01:12:57.348Z,7.70
2019-05-30T01:14:05.518Z,7.70
2019-05-30T01:15:12.265Z,7.70
2019-05-30T01:16:19.306Z,7.70
2019-05-30T01:17:25.547Z,7.70
2019-05-30T01:18:33.458Z,7.70
2019-05-30T01:19:39.718Z,7.70
2019-05-30T01:20:47.046Z,7.60
2019-05-30T01:21:53.243Z,7.70
2019-05-30T01:23:01.295Z,7.60
2019-05-30T01:24:07.823Z,7.60
2019-05-30T01:25:15.030Z,7.60
2019-05-30T01:26:21.491Z,7.60
2019-05-30T01:27:29.264Z,7.60
2019-05-30T01:28:35.567Z,7.60
2019-05-30T01:29:43.556Z,7.50
2019-05-30T01:30:59.494Z,7.50
2019-05-30T01:31:59.393Z,7.50
2019-05-30T01:33:05.945Z,7.50
2019-05-30T01:34:12.866Z,7.50
2019-05-30T01:35:19.320Z,7.50
2019-05-30T01:36:26.224Z,7.50
2019-05-30T01:37:32.599Z,7.50
2019-05-30T01:38:39.628Z,7.40
2019-05-30T01:39:46.009Z,7.40
2019-05-30T01:40:52.975Z,7.40
2019-05-30T01:41:59.708Z,7.40
2019-05-30T01:43:06.661Z,7.40
2019-05-30T01:44:12.963Z,7.40
2019-05-30T01:45:20.026Z,7.40
2019-05-30T01:46:26.406Z,7.40
2019-05-30T01:47:33.367Z,7.30
2019-05-30T01:48:39.775Z,7.30
2019-05-30T01:49:46.595Z,7.30
2019-05-30T01:50:53.036Z,7.30
2019-05-30T01:52:00.319Z,7.30
2019-05-30T01:53:06.766Z,7.30
2019-05-30T01:54:13.373Z,7.30
2019-05-30T01:55:19.840Z,7.30
2019-05-30T01:56:26.879Z,7.20
2019-05-30T01:57:33.164Z,7.20
2019-05-30T01:58:39.951Z,7.20
2019-05-30T01:59:46.347Z,7.20
2019-05-30T02:00:53.307Z,7.20
2019-05-30T02:02:00.824Z,7.20
2019-05-30T02:03:09.815Z,7.20
2019-05-30T02:04:16.192Z,7.10
2019-05-30T02:05:23.077Z,7.10
2019-05-30T02:06:29.397Z,7.10
2019-05-30T02:07:36.249Z,7.10
2019-05-30T02:08:42.717Z,7.10
2019-05-30T02:09:49.711Z,7.00
2019-05-30T02:10:56.074Z,7.00
2019-05-30T02:12:03.650Z,7.00
2019-05-30T02:13:10.071Z,7.00
2019-05-30T02:14:17.140Z,7.00
2019-05-30T02:15:23.524Z,7.00
2019-05-30T02:16:29.999Z,7.00
2019-05-30T02:17:37.179Z,6.90
2019-05-30T02:18:43.995Z,6.90
2019-05-30T02:19:51.355Z,6.90
2019-05-30T02:20:59.492Z,6.90
2019-05-30T02:22:06.202Z,6.90
2019-05-30T02:23:13.125Z,6.90
2019-05-30T02:24:19.367Z,6.90
2019-05-30T02:25:26.251Z,6.90
2019-05-30T02:26:32.496Z,6.90
2019-05-30T02:27:39.446Z,6.90
2019-05-30T02:28:46.405Z,6.90
2019-05-30T02:29:53.290Z,6.90
2019-05-30T02:31:00.530Z,6.90
2019-05-30T02:32:08.999Z,6.90
2019-05-30T02:33:15.416Z,6.90
2019-05-30T02:34:22.450Z,6.90
2019-05-30T02:35:28.831Z,6.90
2019-05-30T02:36:35.999Z,6.80
2019-05-30T02:37:42.431Z,6.90
2019-05-30T02:38:50.268Z,6.90
2019-05-30T02:40:00.257Z,6.80
2019-05-30T02:41:05.786Z,6.80
2019-05-30T02:42:13.134Z,6.80
2019-05-30T02:43:22.151Z,6.80
2019-05-30T02:44:28.470Z,6.80
2019-05-30T02:45:35.445Z,6.80
2019-05-30T02:46:41.750Z,6.80
2019-05-30T02:47:48.616Z,6.70
2019-05-30T02:48:59.374Z,6.70
2019-05-30T02:50:04.401Z,6.70
2019-05-30T02:51:12.743Z,6.70
2019-05-30T02:52:19.645Z,6.80
2019-05-30T02:53:25.867Z,6.70
2019-05-30T02:54:32.859Z,6.70
2019-05-30T02:55:39.251Z,6.80
2019-05-30T02:56:46.197Z,6.80
2019-05-30T02:57:52.447Z,6.80
2019-05-30T02:58:59.474Z,6.80
2019-05-30T03:00:08.203Z,6.80
2019-05-30T03:01:14.839Z,6.80
2019-05-30T03:02:21.249Z,6.80
2019-05-30T03:03:28.118Z,6.80
2019-05-30T03:04:34.529Z,6.90
2019-05-30T03:05:41.440Z,6.80
2019-05-30T03:06:48.149Z,6.80
2019-05-30T03:07:55.142Z,6.70
2019-05-30T03:09:01.918Z,6.70
2019-05-30T03:10:14.641Z,6.80
2019-05-30T03:11:19.217Z,6.80
2019-05-30T03:12:26.564Z,6.80
2019-05-30T03:13:33.335Z,6.80
2019-05-30T03:14:41.218Z,6.80
2019-05-30T03:15:47.427Z,6.80
2019-05-30T03:16:54.377Z,6.80
2019-05-30T03:18:02.252Z,6.90
2019-05-30T03:19:11.059Z,6.90
2019-05-30T03:20:23.228Z,6.90
2019-05-30T03:21:27.586Z,6.90
2019-05-30T03:22:34.006Z,6.90
2019-05-30T03:23:40.983Z,6.90
2019-05-30T03:24:47.325Z,6.90
2019-05-30T03:25:54.285Z,7.00
2019-05-30T03:27:02.473Z,6.90
2019-05-30T03:28:11.192Z,7.00
2019-05-30T03:29:17.712Z,7.00
2019-05-30T03:30:28.990Z,7.00
2019-05-30T03:31:36.141Z,7.00
2019-05-30T03:33:07.076Z,7.10
2019-05-30T03:33:53.001Z,7.10
2019-05-30T03:34:59.950Z,7.10
2019-05-30T03:36:14.031Z,7.10
2019-05-30T03:37:26.458Z,7.10
2019-05-30T03:38:22.625Z,7.20
2019-05-30T03:39:29.604Z,7.20
2019-05-30T03:40:35.969Z,7.10
2019-05-30T03:41:43.003Z,7.10
2019-05-30T03:42:49.305Z,7.10
2019-05-30T03:43:56.263Z,7.10
2019-05-30T03:45:04.151Z,7.10
2019-05-30T03:46:15.115Z,7.20
2019-05-30T03:47:24.588Z,7.20
2019-05-30T03:48:33.080Z,7.30
2019-05-30T03:49:42.454Z,7.30
2019-05-30T03:50:52.852Z,7.30
2019-05-30T03:52:00.970Z,7.30
2019-05-30T03:53:11.626Z,7.40
2019-05-30T03:54:19.080Z,7.40
2019-05-30T03:55:27.847Z,7.40
2019-05-30T03:56:42.916Z,7.40
2019-05-30T03:57:58.252Z,7.40
2019-05-30T03:59:18.939Z,7.40
2019-05-30T04:00:41.454Z,7.50
2019-05-30T04:02:03.799Z,7.50
2019-05-30T04:03:41.127Z,7.50
2019-05-30T04:04:53.077Z,7.50
2019-05-30T04:06:03.188Z,7.50
2019-05-30T04:07:15.620Z,7.60
2019-05-30T04:08:23.950Z,7.60
2019-05-30T04:09:33.727Z,7.60
2019-05-30T04:10:44.560Z,7.60
2019-05-30T04:12:07.787Z,7.60
2019-05-30T04:13:28.655Z,7.70
2019-05-30T04:14:38.847Z,7.70
2019-05-30T04:15:45.614Z,7.70
2019-05-30T04:16:52.124Z,7.70
2019-05-30T04:17:59.215Z,7.70
2019-05-30T04:19:08.064Z,7.80
2019-05-30T04:20:20.668Z,7.80
2019-05-30T04:21:23.174Z,7.70
2019-05-30T04:22:31.533Z,7.60
2019-05-30T04:23:38.071Z,7.60
2019-05-30T04:24:45.016Z,7.60
2019-05-30T04:25:51.326Z,7.70
2019-05-30T04:26:58.176Z,7.70
2019-05-30T04:28:04.563Z,7.70
2019-05-30T04:29:12.296Z,7.80
2019-05-30T04:30:19.388Z,7.80
2019-05-30T04:31:26.213Z,7.90
2019-05-30T04:32:32.676Z,7.80
2019-05-30T04:33:40.741Z,7.90
2019-05-30T04:34:46.796Z,7.90
2019-05-30T04:35:53.705Z,7.90
2019-05-30T04:37:00.237Z,8.00
2019-05-30T04:38:08.585Z,8.00
2019-05-30T04:39:15.297Z,8.00
2019-05-30T04:40:22.767Z,8.00
2019-05-30T04:41:29.086Z,8.10
2019-05-30T04:42:36.373Z,8.10
2019-05-30T04:43:42.711Z,8.10
2019-05-30T04:44:49.777Z,8.20
2019-05-30T04:45:56.248Z,8.20
2019-05-30T04:47:03.120Z,8.20
2019-05-30T04:48:09.803Z,8.20
2019-05-30T04:49:17.353Z,8.30
2019-05-30T04:50:24.929Z,8.30
2019-05-30T04:51:32.116Z,8.30
2019-05-30T04:52:38.456Z,8.40
2019-05-30T04:53:45.509Z,8.40
2019-05-30T04:54:51.960Z,8.40
2019-05-30T04:55:59.011Z,8.40
2019-05-30T04:57:05.499Z,8.50
2019-05-30T04:58:13.350Z,8.50
2019-05-30T04:59:21.727Z,8.60
2019-05-30T05:00:28.904Z,8.60
2019-05-30T05:01:35.355Z,8.70
2019-05-30T05:02:42.611Z,8.70
2019-05-30T05:03:48.905Z,8.70
2019-05-30T05:04:55.665Z,8.70
2019-05-30T05:06:02.046Z,8.70
2019-05-30T05:07:09.246Z,8.70
2019-05-30T05:08:15.958Z,8.80
2019-05-30T05:09:22.569Z,8.80
2019-05-30T05:10:29.052Z,8.90
2019-05-30T05:11:35.927Z,8.90
2019-05-30T05:12:42.347Z,8.90
2019-05-30T05:13:49.296Z,9.00
2019-05-30T05:14:55.577Z,9.00
2019-05-30T05:16:02.597Z,9.00
2019-05-30T05:17:09.012Z,9.00
2019-05-30T05:18:16.955Z,9.10
2019-05-30T05:19:26.080Z,9.10
2019-05-30T05:20:35.769Z,9.10
2019-05-30T05:21:39.630Z,9.10
2019-05-30T05:22:46.728Z,9.20
2019-05-30T05:23:53.076Z,9.20
2019-05-30T05:24:59.948Z,9.20
2019-05-30T05:26:06.354Z,9.20
2019-05-30T05:27:13.574Z,9.30
2019-05-30T05:28:20.117Z,9.40
2019-05-30T05:29:26.938Z,9.30
2019-05-30T05:30:33.096Z,9.40
2019-05-30T05:31:39.937Z,9.40
2019-05-30T05:32:47.274Z,9.40
2019-05-30T05:33:56.995Z,9.50
2019-05-30T05:35:02.360Z,9.50
2019-05-30T05:36:09.292Z,9.50
2019-05-30T05:37:16.930Z,9.50
2019-05-30T05:38:24.446Z,9.50
2019-05-30T05:39:30.720Z,9.50
2019-05-30T05:40:37.618Z,9.60
2019-05-30T05:41:43.899Z,9.60
2019-05-30T05:42:50.699Z,9.60
2019-05-30T05:43:57.056Z,9.60
2019-05-30T05:45:03.616Z,9.60
2019-05-30T05:46:10.001Z,9.70
2019-05-30T05:47:18.388Z,9.80
2019-05-30T05:48:24.980Z,9.80
2019-05-30T05:49:31.874Z,9.80
2019-05-30T05:50:38.261Z,9.80
2019-05-30T05:51:45.202Z,9.70
2019-05-30T05:52:51.782Z,9.80
2019-05-30T05:53:58.763Z,9.80
2019-05-30T05:55:05.141Z,9.90
2019-05-30T05:56:11.909Z,9.90
2019-05-30T05:57:18.855Z,10.00
2019-05-30T05:58:26.505Z,10.00
2019-05-30T05:59:33.010Z,10.00
2019-05-30T06:00:39.933Z,10.10
2019-05-30T06:01:46.270Z,10.20
2019-05-30T06:02:53.213Z,10.20
2019-05-30T06:04:12.522Z,10.30
2019-05-30T06:05:08.457Z,10.30
2019-05-30T06:06:14.738Z,10.30
2019-05-30T06:07:22.461Z,10.40
2019-05-30T06:08:28.964Z,10.40
2019-05-30T06:09:35.964Z,10.40
2019-05-30T06:10:42.282Z,10.50
2019-05-30T06:11:49.268Z,10.50
2019-05-30T06:12:55.549Z,10.50
2019-05-30T06:14:02.906Z,10.50
2019-05-30T06:15:09.344Z,10.50
2019-05-30T06:16:16.415Z,10.60
2019-05-30T06:17:23.072Z,10.60
2019-05-30T06:18:29.922Z,10.60
2019-05-30T06:19:45.878Z,10.70
2019-05-30T06:20:45.120Z,10.70
2019-05-30T06:21:54.411Z,10.80
2019-05-30T06:23:00.245Z,10.80
2019-05-30T06:24:07.752Z,10.90
2019-05-30T06:25:14.948Z,10.90
2019-05-30T06:26:22.484Z,10.90
2019-05-30T06:27:29.454Z,10.90
2019-05-30T06:28:35.829Z,10.90
2019-05-30T06:29:42.600Z,11.00
2019-05-30T06:30:48.895Z,11.00
2019-05-30T06:31:55.756Z,11.00
2019-05-30T06:33:02.051Z,11.00
2019-05-30T06:34:09.411Z,11.10
2019-05-30T06:35:15.988Z,11.10
2019-05-30T06:36:23.135Z,11.10
2019-05-30T06:37:29.584Z,11.10
2019-05-30T06:38:36.514Z,11.10
2019-05-30T06:39:42.880Z,11.20
2019-05-30T06:40:49.754Z,11.20
2019-05-30T06:41:56.184Z,11.20
2019-05-30T06:43:03.230Z,11.20
2019-05-30T06:44:09.572Z,11.20
2019-05-30T06:45:16.495Z,11.20
2019-05-30T06:46:22.753Z,11.20
2019-05-30T06:47:30.726Z,11.20
2019-05-30T06:48:37.087Z,11.20
2019-05-30T06:49:44.068Z,11.30
2019-05-30T06:50:50.392Z,11.30
2019-05-30T06:51:57.184Z,11.30
2019-05-30T06:53:03.163Z,11.40
2019-05-30T06:54:10.205Z,11.40
2019-05-30T06:55:16.581Z,11.40
2019-05-30T06:56:23.444Z,11.40
2019-05-30T06:57:29.844Z,11.50
2019-05-30T06:58:47.888Z,11.50
2019-05-30T06:59:44.918Z,11.60
2019-05-30T07:00:51.890Z,11.60
2019-05-30T07:01:58.336Z,11.60
2019-05-30T07:03:05.798Z,11.70
2019-05-30T07:04:12.247Z,11.70
2019-05-30T07:05:19.879Z,11.80
2019-05-30T07:06:27.508Z,11.80
2019-05-30T07:07:35.287Z,11.80
2019-05-30T07:08:41.759Z,11.80
2019-05-30T07:09:48.808Z,11.80
2019-05-30T07:10:55.266Z,11.90
2019-05-30T07:12:02.215Z,11.90
2019-05-30T07:13:09.634Z,11.90
2019-05-30T07:14:16.777Z,12.00
2019-05-30T07:15:23.419Z,12.00
2019-05-30T07:16:31.498Z,12.00
2019-05-30T07:17:37.826Z,12.10
2019-05-30T07:18:44.685Z,12.10
2019-05-30T07:19:51.060Z,12.10
2019-05-30T07:20:58.107Z,12.10
2019-05-30T07:22:04.720Z,12.10
2019-05-30T07:23:11.829Z,12.20
2019-05-30T07:24:18.239Z,12.30
2019-05-30T07:25:25.729Z,12.30
2019-05-30T07:26:32.043Z,12.30
2019-05-30T07:27:38.997Z,12.30
2019-05-30T07:28:44.988Z,12.30
2019-05-30T07:29:52.014Z,12.40
2019-05-30T07:30:58.488Z,12.50
2019-05-30T07:32:05.666Z,12.50
2019-05-30T07:33:12.109Z,12.50
2019-05-30T07:34:18.916Z,12.60
2019-05-30T07:35:25.932Z,12.60
2019-05-30T07:36:34.450Z,12.60
2019-05-30T07:37:40.949Z,12.60
2019-05-30T07:38:47.589Z,12.60
2019-05-30T07:39:53.945Z,12.70
2019-05-30T07:41:00.752Z,12.70
2019-05-30T07:42:07.380Z,12.80
2019-05-30T07:43:14.307Z,12.80
2019-05-30T07:44:20.630Z,12.80
2019-05-30T07:45:29.022Z,12.90
2019-05-30T07:46:35.467Z,12.90
2019-05-30T07:47:42.380Z,13.00
2019-05-30T07:48:49.727Z,13.00
2019-05-30T07:49:56.758Z,12.90
2019-05-30T07:51:03.126Z,12.90
2019-05-30T07:52:10.086Z,13.00
2019-05-30T07:53:16.435Z,13.10
2019-05-30T07:54:23.325Z,13.10
2019-05-30T07:55:30.938Z,13.20
2019-05-30T07:56:39.332Z,13.10
2019-05-30T07:57:45.671Z,13.20
2019-05-30T07:58:52.587Z,13.40
2019-05-30T07:59:59.944Z,13.30
2019-05-30T08:01:06.961Z,13.30
2019-05-30T08:02:13.501Z,13.40
2019-05-30T08:03:20.603Z,13.40
2019-05-30T08:04:27.431Z,13.50
2019-05-30T08:05:35.459Z,13.50
2019-05-30T08:06:41.938Z,13.50
2019-05-30T08:07:49.017Z,13.50
2019-05-30T08:08:55.407Z,13.40
2019-05-30T08:10:02.280Z,13.50
2019-05-30T08:11:10.312Z,13.60
2019-05-30T08:12:17.674Z,13.70
2019-05-30T08:13:23.936Z,13.80
2019-05-30T08:14:31.083Z,13.90
2019-05-30T08:15:43.804Z,13.90
2019-05-30T08:16:46.259Z,14.00
2019-05-30T08:17:53.095Z,14.00
2019-05-30T08:18:59.928Z,14.00
2019-05-30T08:20:06.829Z,14.00
2019-05-30T08:21:13.744Z,14.00
2019-05-30T08:22:20.246Z,14.00
2019-05-30T08:23:28.067Z,14.10
2019-05-30T08:24:34.551Z,14.20
2019-05-30T08:25:41.519Z,14.10
2019-05-30T08:26:47.803Z,14.10
2019-05-30T08:27:54.878Z,14.20
2019-05-30T08:29:01.293Z,14.30
2019-05-30T08:30:08.873Z,14.30
2019-05-30T08:31:15.223Z,14.40
2019-05-30T08:32:22.275Z,14.40
2019-05-30T08:33:29.564Z,14.40
2019-05-30T08:34:36.855Z,14.50
2019-05-30T08:35:49.470Z,14.60
2019-05-30T08:36:53.317Z,14.60
2019-05-30T08:37:59.646Z,14.60
2019-05-30T08:39:08.296Z,14.50
2019-05-30T08:40:15.490Z,14.60
2019-05-30T08:41:22.262Z,14.70
2019-05-30T08:42:29.515Z,14.70
2019-05-30T08:43:37.666Z,14.90
2019-05-30T08:44:44.121Z,15.00
2019-05-30T08:45:50.910Z,14.90
2019-05-30T08:46:57.006Z,15.00
2019-05-30T08:48:04.036Z,15.00
2019-05-30T08:49:10.345Z,14.90
2019-05-30T08:50:17.556Z,15.10
2019-05-30T08:51:24.005Z,15.10
2019-05-30T08:52:32.309Z,15.20
2019-05-30T08:53:38.896Z,15.20
2019-05-30T08:54:45.787Z,15.20
2019-05-30T08:55:52.095Z,15.30
2019-05-30T08:56:59.086Z,15.30
2019-05-30T08:58:05.198Z,15.30
2019-05-30T08:59:12.199Z,15.20
2019-05-30T09:00:18.872Z,15.30
2019-05-30T09:01:25.853Z,15.30
2019-05-30T09:02:32.350Z,15.30
2019-05-30T09:03:40.115Z,15.40
2019-05-30T09:04:46.675Z,15.60
2019-05-30T09:06:03.464Z,15.60
2019-05-30T09:07:01.479Z,15.60
2019-05-30T09:08:08.286Z,15.60
2019-05-30T09:09:14.372Z,15.60
2019-05-30T09:10:21.456Z,15.60
2019-05-30T09:11:27.863Z,15.60
2019-05-30T09:12:37.576Z,15.70
2019-05-30T09:13:44.474Z,15.80
2019-05-30T09:14:51.686Z,15.80
2019-05-30T09:15:59.032Z,15.90
2019-05-30T09:17:06.026Z,16.00
2019-05-30T09:18:12.479Z,16.10
2019-05-30T09:19:19.684Z,16.10
2019-05-30T09:20:26.145Z,16.20
2019-05-30T09:21:33.144Z,16.20
2019-05-30T09:22:39.794Z,16.30
2019-05-30T09:23:48.011Z,16.30
2019-05-30T09:24:54.572Z,16.20
2019-05-30T09:26:01.671Z,16.20
2019-05-30T09:27:09.371Z,16.30
2019-05-30T09:28:16.193Z,16.40
2019-05-30T09:29:22.494Z,16.40
2019-05-30T09:30:29.453Z,16.40
2019-05-30T09:31:35.812Z,16.40
2019-05-30T09:32:43.280Z,16.40
2019-05-30T09:33:49.883Z,16.50
2019-05-30T09:34:56.813Z,16.40
2019-05-30T09:36:12.668Z,16.30
2019-05-30T09:37:13.078Z,16.40
2019-05-30T09:38:19.456Z,16.50
2019-05-30T09:39:29.611Z,16.50
2019-05-30T09:40:35.534Z,16.60
2019-05-30T09:41:43.748Z,16.40
2019-05-30T09:42:50.421Z,16.40
2019-05-30T09:43:57.140Z,16.50
2019-05-30T09:45:03.488Z,16.50
2019-05-30T09:46:10.530Z,16.40
2019-05-30T09:47:16.773Z,16.50
2019-05-30T09:48:23.751Z,16.70
2019-05-30T09:49:30.032Z,16.70
2019-05-30T09:50:36.901Z,16.60
2019-05-30T09:51:44.109Z,16.60
2019-05-30T09:52:51.864Z,16.50
2019-05-30T09:53:58.053Z,16.60
2019-05-30T09:55:05.238Z,16.60
2019-05-30T09:56:11.527Z,16.70
2019-05-30T09:57:18.576Z,16.80
2019-05-30T09:58:25.272Z,16.90
2019-05-30T09:59:32.224Z,16.90
2019-05-30T10:00:38.687Z,16.90
2019-05-30T10:01:46.080Z,17.00
2019-05-30T10:02:52.648Z,17.00
2019-05-30T10:03:59.749Z,17.00
2019-05-30T10:05:07.302Z,16.90
2019-05-30T10:06:28.465Z,17.00
2019-05-30T10:07:22.279Z,17.20
2019-05-30T10:08:29.323Z,17.20
2019-05-30T10:09:37.225Z,17.00
2019-05-30T10:10:45.640Z,16.90
2019-05-30T10:11:53.395Z,17.10
2019-05-30T10:13:00.499Z,17.20
2019-05-30T10:14:07.129Z,17.20
2019-05-30T10:15:14.759Z,17.30
2019-05-30T10:16:20.957Z,17.30
2019-05-30T10:17:27.912Z,17.40
2019-05-30T10:18:34.224Z,17.20
2019-05-30T10:19:41.055Z,17.20
2019-05-30T10:20:49.431Z,17.30
2019-05-30T10:21:57.281Z,17.50
2019-05-30T10:23:03.864Z,17.60
2019-05-30T10:24:10.920Z,17.70
2019-05-30T10:25:18.045Z,17.80
2019-05-30T10:26:25.085Z,17.80
2019-05-30T10:27:31.250Z,17.80
2019-05-30T10:28:38.815Z,17.90
2019-05-30T10:29:47.276Z,18.00
2019-05-30T10:30:57.306Z,18.00
2019-05-30T10:32:01.724Z,18.20
2019-05-30T10:33:08.686Z,18.40
2019-05-30T10:34:15.085Z,18.40
2019-05-30T10:35:21.992Z,18.50
2019-05-30T10:36:41.505Z,18.50
2019-05-30T10:37:37.084Z,18.60
2019-05-30T10:38:43.293Z,18.80
2019-05-30T10:39:50.891Z,19.00
2019-05-30T10:40:57.446Z,19.20
2019-05-30T10:42:04.366Z,19.40
2019-05-30T10:43:10.805Z,19.60
2019-05-30T10:44:17.643Z,19.70
2019-05-30T10:45:24.571Z,19.90
2019-05-30T10:46:31.489Z,20.10
2019-05-30T10:47:37.787Z,20.20
2019-05-30T10:48:47.322Z,20.40
2019-05-30T10:49:53.657Z,20.60
2019-05-30T10:51:00.188Z,21.20
2019-05-30T10:52:06.498Z,21.80
2019-05-30T10:53:13.354Z,22.20
2019-05-30T10:54:19.635Z,22.80
2019-05-30T10:55:28.118Z,23.40
2019-05-30T10:56:34.632Z,24.30
2019-05-30T10:57:41.487Z,25.00
2019-05-30T10:58:48.278Z,25.90
2019-05-30T10:59:56.721Z,25.60
2019-05-30T11:01:04.292Z,25.70
2019-05-30T11:02:11.010Z,25.80
2019-05-30T11:03:17.338Z,25.90
2019-05-30T11:04:24.259Z,26.00
2019-05-30T11:05:30.685Z,26.30
2019-05-30T11:07:11.285Z,26.60
2019-05-30T11:08:17.582Z,27.10
2019-05-30T11:09:27.689Z,27.90
2019-05-30T11:10:40.649Z,28.10
2019-05-30T11:11:48.571Z,28.50
2019-05-30T11:13:00.182Z,28.60
2019-05-30T11:14:03.822Z,28.40
2019-05-30T11:15:10.224Z,28.40
2019-05-30T11:16:17.185Z,28.90
2019-05-30T11:17:23.138Z,29.30
2019-05-30T11:18:29.985Z,29.90
2019-05-30T11:19:36.446Z,30.20
2019-05-30T11:20:43.486Z,30.40
2019-05-30T11:21:49.852Z,30.90
2019-05-30T11:22:56.824Z,31.40
2019-05-30T11:24:03.099Z,31.70
2019-05-30T11:25:10.202Z,32.00
2019-05-30T11:26:16.545Z,32.20
2019-05-30T11:27:23.516Z,32.40
2019-05-30T11:28:29.885Z,32.50
2019-05-30T11:29:36.727Z,31.80
2019-05-30T11:30:42.996Z,31.50
2019-05-30T11:31:50.733Z,30.90
2019-05-30T11:32:57.324Z,30.70
2019-05-30T11:34:04.514Z,30.50
2019-05-30T11:35:10.997Z,30.30
2019-05-30T11:36:18.040Z,30.20
2019-05-30T11:37:24.377Z,30.30
2019-05-30T11:38:31.468Z,30.70
2019-05-30T11:39:37.845Z,31.20
2019-05-30T11:40:44.645Z,31.30
2019-05-30T11:41:51.193Z,31.00
2019-05-30T11:42:59.813Z,30.80
2019-05-30T11:44:06.359Z,30.90
2019-05-30T11:45:13.607Z,30.80
2019-05-30T11:46:19.981Z,30.80
2019-05-30T11:47:27.425Z,30.10
2019-05-30T11:48:33.813Z,29.70
2019-05-30T11:49:40.735Z,30.20
2019-05-30T11:50:46.927Z,30.20
2019-05-30T11:51:53.741Z,31.10
2019-05-30T11:53:00.147Z,31.00
2019-05-30T11:54:07.017Z,31.00
2019-05-30T11:55:13.592Z,31.00
2019-05-30T11:56:20.656Z,31.30
2019-05-30T11:57:26.936Z,31.40
2019-05-30T11:58:33.812Z,32.00
2019-05-30T11:59:40.134Z,32.50
2019-05-30T12:00:47.247Z,32.50
2019-05-30T12:01:54.546Z,32.40
2019-05-30T12:03:01.656Z,33.00
2019-05-30T12:04:07.802Z,33.70
2019-05-30T12:05:15.455Z,34.00
2019-05-30T12:06:21.786Z,33.20
2019-05-30T12:07:36.323Z,33.30
2019-05-30T12:08:36.707Z,33.10
2019-05-30T12:09:43.813Z,33.50
2019-05-30T12:10:51.071Z,33.30
2019-05-30T12:11:59.277Z,33.40
2019-05-30T12:13:05.805Z,34.00
2019-05-30T12:14:12.499Z,34.20
2019-05-30T12:15:19.146Z,33.60
2019-05-30T12:16:29.523Z,32.70
2019-05-30T12:17:35.842Z,31.90
2019-05-30T12:18:42.767Z,32.60
2019-05-30T12:19:49.298Z,33.30
2019-05-30T12:20:56.207Z,33.60
2019-05-30T12:22:02.526Z,33.20
2019-05-30T12:23:10.496Z,33.50
2019-05-30T12:24:16.747Z,33.50
2019-05-30T12:25:23.994Z,33.60
2019-05-30T12:26:33.559Z,33.50
2019-05-30T12:27:38.613Z,33.40
2019-05-30T12:28:45.082Z,32.30
2019-05-30T12:29:52.119Z,32.00
2019-05-30T12:31:04.262Z,31.60
2019-05-30T12:32:06.878Z,31.80
2019-05-30T12:33:13.113Z,31.80
2019-05-30T12:34:20.100Z,31.70
2019-05-30T12:35:26.470Z,31.40
2019-05-30T12:36:33.485Z,31.60
2019-05-30T12:37:54.339Z,31.80
2019-05-30T12:38:48.232Z,31.70
2019-05-30T12:39:54.773Z,31.70
2019-05-30T12:41:01.539Z,31.70
2019-05-30T12:42:07.931Z,31.60
2019-05-30T12:43:14.867Z,31.70
2019-05-30T12:44:21.079Z,31.50
2019-05-30T12:45:29.211Z,31.40
2019-05-30T12:46:35.438Z,31.30
2019-05-30T12:47:42.290Z,31.70
2019-05-30T12:48:48.895Z,31.40
2019-05-30T12:49:55.675Z,31.60
2019-05-30T12:51:01.882Z,31.40
2019-05-30T12:52:08.902Z,30.80
2019-05-30T12:53:15.188Z,30.40
2019-05-30T12:54:22.144Z,30.70
2019-05-30T12:55:28.290Z,31.00
2019-05-30T12:56:35.330Z,31.10
2019-05-30T12:57:41.739Z,30.80
2019-05-30T12:58:48.803Z,31.00
2019-05-30T12:59:55.089Z,31.40
2019-05-30T13:01:02.959Z,31.90
2019-05-30T13:02:09.816Z,31.40
2019-05-30T13:03:16.735Z,30.50
2019-05-30T13:04:22.857Z,29.90
2019-05-30T13:05:29.769Z,29.20
2019-05-30T13:06:36.047Z,28.60
2019-05-30T13:07:43.087Z,28.50
2019-05-30T13:08:49.407Z,28.80
2019-05-30T13:09:57.117Z,29.90
2019-05-30T13:11:03.799Z,30.80
2019-05-30T13:12:10.974Z,30.70
2019-05-30T13:13:17.438Z,30.50
2019-05-30T13:14:24.005Z,30.20
2019-05-30T13:15:30.432Z,29.70
2019-05-30T13:16:37.279Z,29.10
2019-05-30T13:17:43.629Z,28.30
2019-05-30T13:18:50.598Z,27.40
2019-05-30T13:19:57.025Z,26.90
2019-05-30T13:21:04.261Z,26.60
2019-05-30T13:22:10.799Z,26.00
2019-05-30T13:23:17.804Z,26.00
2019-05-30T13:24:24.095Z,25.90
2019-05-30T13:25:30.895Z,25.50
2019-05-30T13:26:37.241Z,25.20
2019-05-30T13:27:44.144Z,25.10
2019-05-30T13:28:50.319Z,24.90
2019-05-30T13:29:57.997Z,24.90
2019-05-30T13:31:04.502Z,24.90
2019-05-30T13:32:11.819Z,24.70
2019-05-30T13:33:18.236Z,24.50
2019-05-30T13:34:25.155Z,24.40
2019-05-30T13:35:31.583Z,24.50
2019-05-30T13:36:38.398Z,24.50
2019-05-30T13:37:44.395Z,24.20
2019-05-30T13:38:52.265Z,24.00
2019-05-30T13:39:59.377Z,23.70
2019-05-30T13:41:07.667Z,23.50
2019-05-30T13:42:14.115Z,23.50
2019-05-30T13:43:20.935Z,23.40
2019-05-30T13:44:27.177Z,23.20
2019-05-30T13:45:34.036Z,23.30
2019-05-30T13:46:40.521Z,23.30
2019-05-30T13:47:47.360Z,23.40
2019-05-30T13:48:54.558Z,23.50
2019-05-30T13:50:02.989Z,23.50
2019-05-30T13:51:09.535Z,23.70
2019-05-30T13:52:16.550Z,24.00
2019-05-30T13:53:22.803Z,24.10
2019-05-30T13:54:30.614Z,24.20
2019-05-30T13:55:37.113Z,24.40
2019-05-30T13:56:44.064Z,24.30
2019-05-30T13:57:50.464Z,24.10
2019-05-30T13:58:57.373Z,23.90
2019-05-30T14:00:03.829Z,24.00
2019-05-30T14:01:14.017Z,24.50
2019-05-30T14:02:20.162Z,25.50
2019-05-30T14:03:27.142Z,27.00
2019-05-30T14:04:33.480Z,28.60
2019-05-30T14:05:40.305Z,29.30
2019-05-30T14:06:46.727Z,29.10
2019-05-30T14:07:53.443Z,28.50
2019-05-30T14:09:00.198Z,27.60
2019-05-30T14:10:08.904Z,26.90
2019-05-30T14:11:14.980Z,26.30
2019-05-30T14:12:21.804Z,25.90
2019-05-30T14:13:28.310Z,25.90
2019-05-30T14:14:35.304Z,26.00
2019-05-30T14:15:41.707Z,26.20
2019-05-30T14:16:49.503Z,26.20
2019-05-30T14:17:57.531Z,26.10
2019-05-30T14:19:05.373Z,25.40
2019-05-30T14:20:12.634Z,24.60
2019-05-30T14:21:19.615Z,24.10
2019-05-30T14:22:26.024Z,23.70
2019-05-30T14:23:32.837Z,23.40
2019-05-30T14:24:39.250Z,23.10
2019-05-30T14:25:46.199Z,22.90
2019-05-30T14:26:52.730Z,22.50
2019-05-30T14:27:59.598Z,22.30
2019-05-30T14:29:06.083Z,22.50
2019-05-30T14:30:13.637Z,22.50
2019-05-30T14:31:20.038Z,22.50
2019-05-30T14:32:26.989Z,22.50
2019-05-30T14:33:33.256Z,22.60
2019-05-30T14:34:41.235Z,22.80
2019-05-30T14:35:47.476Z,23.10
2019-05-30T14:36:54.506Z,23.40